Time;durP1;ratioP1;P1;durP2;ratioP2;P2;SDS_P1;SDS_P2;PMS_P1;PMS_P2;Temp;Humidity;BMP_temperature;BMP_pressure;BME280_temperature;BME280_humidity;BME280_pressure;Samples;Min_cycle;Max_cycle;Signal;HPM_P1;HPM_P2
2022/03/30 04:01:23;;;;;;;25.93;18.93;;;10.80;99.90;;;;;;5516978;23;20280;-76
2022/03/30 04:03:50;;;;;;;28.10;18.90;;;10.80;99.90;;;;;;4949968;29;20465;-76
2022/03/30 04:06:17;;;;;;;31.20;21.10;;;10.80;99.90;;;;;;4949417;29;20500;-76
2022/03/30 04:08:44;;;;;;;27.90;18.10;;;10.90;99.90;;;;;;4950050;29;20456;-76
2022/03/30 04:11:11;;;;;;;27.87;18.47;;;10.90;99.90;;;;;;4950051;28;20473;-76
2022/03/30 04:13:38;;;;;;;29.00;19.00;;;11.00;99.90;;;;;;4949736;29;20565;-76
2022/03/30 04:16:05;;;;;;;28.43;18.57;;;11.00;99.90;;;;;;4949921;29;20465;-76
2022/03/30 04:18:33;;;;;;;26.67;18.67;;;11.00;99.90;;;;;;4948890;28;20584;-76
2022/03/30 04:21:00;;;;;;;24.17;17.70;;;11.10;99.90;;;;;;4949733;28;20484;-76
2022/03/30 04:23:27;;;;;;;24.27;17.30;;;11.10;99.90;;;;;;4949678;29;20457;-76
2022/03/30 04:25:54;;;;;;;27.97;18.90;;;11.10;99.90;;;;;;4949936;29;20897;-76
2022/03/30 04:28:21;;;;;;;24.50;18.30;;;11.10;99.90;;;;;;4949422;28;20458;-76
2022/03/30 04:30:47;;;;;;;26.00;18.70;;;11.10;99.90;;;;;;4949218;28;20481;-76
2022/03/30 04:33:14;;;;;;;29.93;18.53;;;11.20;99.90;;;;;;4949345;28;20895;-76
2022/03/30 04:35:43;;;;;;;24.33;19.27;;;11.10;99.90;;;;;;4948802;29;20461;-76
2022/03/30 04:38:09;;;;;;;25.67;18.93;;;11.10;99.90;;;;;;4948769;28;20462;-76
2022/03/30 04:40:37;;;;;;;26.43;18.50;;;11.00;99.90;;;;;;4949246;28;20481;-76
2022/03/30 04:43:04;;;;;;;28.53;18.90;;;11.00;99.90;;;;;;4949391;29;20549;-76
2022/03/30 04:45:31;;;;;;;39.60;20.50;;;11.00;99.90;;;;;;4949159;29;20458;-76
2022/03/30 04:47:58;;;;;;;30.97;22.17;;;11.00;99.90;;;;;;4949039;29;20461;-76
2022/03/30 04:50:25;;;;;;;31.07;20.33;;;10.90;99.90;;;;;;4949289;28;20544;-76
2022/03/30 04:52:54;;;;;;;31.27;20.73;;;10.90;99.90;;;;;;4949740;29;20457;-76
2022/03/30 04:55:21;;;;;;;36.30;20.90;;;10.90;99.90;;;;;;4949794;29;20457;-76
2022/03/30 04:57:47;;;;;;;29.47;21.13;;;10.90;99.90;;;;;;4948733;29;20453;-76
2022/03/30 05:00:15;;;;;;;31.47;19.40;;;10.90;99.90;;;;;;4949015;28;20546;-76
2022/03/30 05:02:42;;;;;;;32.20;20.50;;;10.90;99.90;;;;;;4949250;29;20450;-76
2022/03/30 05:05:10;;;;;;;29.97;21.37;;;10.90;99.90;;;;;;4949026;29;21039;-67
2022/03/30 05:07:37;;;;;;;34.60;23.77;;;10.80;99.90;;;;;;4948000;29;21277;-68
2022/03/30 05:10:09;;;;;;;37.03;21.83;;;10.90;99.90;;;;;;4949138;28;20453;-68
2022/03/30 05:12:36;;;;;;;32.67;22.70;;;10.80;99.90;;;;;;4949082;28;20464;-68
2022/03/30 05:15:05;;;;;;;30.57;21.90;;;10.80;99.90;;;;;;4949011;29;20461;-68
2022/03/30 05:17:32;;;;;;;34.37;22.00;;;10.90;99.90;;;;;;4948544;29;20466;-68
2022/03/30 05:19:59;;;;;;;38.63;22.47;;;10.90;99.90;;;;;;4949052;29;20961;-68
2022/03/30 05:22:26;;;;;;;37.00;24.30;;;10.90;99.90;;;;;;4948604;28;20465;-68
2022/03/30 05:24:53;;;;;;;37.23;25.30;;;10.90;99.90;;;;;;4949296;29;20827;-67
2022/03/30 05:27:21;;;;;;;38.23;23.50;;;11.00;99.90;;;;;;4947875;29;20540;-77
2022/03/30 05:29:48;;;;;;;29.03;22.07;;;10.90;99.90;;;;;;4949513;29;20461;-76
2022/03/30 05:32:15;;;;;;;41.00;24.90;;;10.90;99.90;;;;;;4949300;28;20563;-77
2022/03/30 05:34:43;;;;;;;35.97;24.70;;;10.90;99.90;;;;;;4949669;28;20549;-76
2022/03/30 05:37:10;;;;;;;34.40;23.70;;;10.90;99.90;;;;;;4948875;29;20540;-77
2022/03/30 05:39:41;;;;;;;35.70;24.20;;;10.90;99.90;;;;;;4949388;29;20713;-76
2022/03/30 05:42:08;;;;;;;40.40;25.80;;;10.90;99.90;;;;;;4949580;28;20989;-76
2022/03/30 05:44:37;;;;;;;43.00;26.00;;;10.90;99.90;;;;;;4949549;29;20457;-76
2022/03/30 05:47:06;;;;;;;36.33;25.10;;;10.90;99.90;;;;;;4948724;28;20446;-76
2022/03/30 05:49:34;;;;;;;40.13;26.90;;;10.80;99.90;;;;;;4949270;29;20525;-76
2022/03/30 05:52:00;;;;;;;48.83;28.73;;;10.80;99.90;;;;;;4949265;28;20473;-76
2022/03/30 05:54:27;;;;;;;43.67;29.10;;;10.80;99.90;;;;;;4948512;29;20941;-76
2022/03/30 05:57:03;;;;;;;40.00;26.27;;;10.90;99.90;;;;;;4948821;29;20468;-76
2022/03/30 05:59:32;;;;;;;37.90;25.90;;;10.90;99.90;;;;;;4950707;28;20604;-76
2022/03/30 06:02:02;;;;;;;33.20;24.50;;;10.90;99.90;;;;;;4949745;28;20559;-76
2022/03/30 06:04:30;;;;;;;33.90;23.70;;;11.00;99.90;;;;;;4949668;29;20463;-76
2022/03/30 06:06:58;;;;;;;34.90;23.47;;;11.00;99.90;;;;;;4951063;29;20557;-76
2022/03/30 06:09:27;;;;;;;34.03;23.90;;;10.90;99.90;;;;;;4952972;28;20489;-75
2022/03/30 06:11:53;;;;;;;34.40;23.87;;;10.90;99.90;;;;;;4951364;28;20477;-73
2022/03/30 06:14:25;;;;;;;35.77;26.20;;;10.90;99.90;;;;;;4951361;29;20864;-75
2022/03/30 06:16:52;;;;;;;44.37;26.97;;;10.90;99.90;;;;;;4949281;29;20961;-75
2022/03/30 06:19:23;;;;;;;45.50;27.30;;;10.90;99.90;;;;;;4949034;29;20865;-75
2022/03/30 06:21:50;;;;;;;40.57;25.87;;;10.90;99.90;;;;;;4948285;28;21499;-76
2022/03/30 06:24:17;;;;;;;40.53;27.50;;;10.90;99.90;;;;;;4949176;29;20516;-76
2022/03/30 06:26:44;;;;;;;40.63;28.33;;;10.90;99.90;;;;;;4949207;29;20465;-77
2022/03/30 06:29:12;;;;;;;45.80;29.00;;;11.00;99.90;;;;;;4949513;29;20449;-75
2022/03/30 06:31:40;;;;;;;53.23;29.90;;;11.00;99.90;;;;;;4948357;28;20990;-76
2022/03/30 06:34:07;;;;;;;46.53;29.60;;;11.00;99.90;;;;;;4945993;29;20470;-76
2022/03/30 06:36:37;;;;;;;45.70;28.57;;;11.00;99.90;;;;;;4946477;29;20448;-76
2022/03/30 06:39:05;;;;;;;43.10;28.80;;;11.00;99.90;;;;;;4947144;29;20513;-77
2022/03/30 06:41:32;;;;;;;47.33;30.20;;;11.00;99.90;;;;;;4947525;28;20481;-76
2022/03/30 06:44:00;;;;;;;58.00;30.40;;;11.00;99.90;;;;;;4947425;29;20465;-76
2022/03/30 06:46:28;;;;;;;47.87;29.57;;;11.00;99.90;;;;;;4948547;29;20457;-79
2022/03/30 06:48:56;;;;;;;42.83;28.40;;;11.00;99.90;;;;;;4949627;28;20465;-76
2022/03/30 06:51:23;;;;;;;44.77;30.10;;;11.00;99.90;;;;;;4949156;28;20493;-78
2022/03/30 06:53:51;;;;;;;48.33;29.33;;;11.10;99.90;;;;;;4948370;29;20461;-77
2022/03/30 06:56:18;;;;;;;47.40;30.53;;;11.00;99.90;;;;;;4947956;29;20828;-77
2022/03/30 06:58:45;;;;;;;45.47;30.23;;;11.00;99.90;;;;;;4947696;28;20460;-76
2022/03/30 07:01:14;;;;;;;49.60;30.60;;;11.00;99.90;;;;;;4948706;28;20599;-77
2022/03/30 07:03:40;;;;;;;55.27;31.17;;;11.10;99.90;;;;;;4950433;29;20465;-77
2022/03/30 07:06:07;;;;;;;48.37;31.30;;;11.10;99.90;;;;;;4950106;29;20540;-77
2022/03/30 07:11:21;;;;;;;42.67;30.63;;;11.00;99.90;;;;;;4948796;28;20460;-76
2022/03/30 07:13:48;;;;;;;51.40;31.10;;;11.00;99.90;;;;;;4948348;29;20461;-76
2022/03/30 07:16:15;;;;;;;44.93;31.40;;;11.00;99.90;;;;;;4947724;29;20543;-76
2022/03/30 07:18:42;;;;;;;43.33;29.60;;;11.00;99.90;;;;;;4947895;29;20464;-68
2022/03/30 07:21:08;;;;;;;44.40;30.33;;;11.00;99.90;;;;;;4947244;28;21020;-69
2022/03/30 07:23:35;;;;;;;49.77;31.70;;;11.10;99.90;;;;;;4947281;29;20492;-68
2022/03/30 07:26:04;;;;;;;48.00;29.77;;;11.00;99.90;;;;;;4947153;29;20462;-69
2022/03/30 07:28:32;;;;;;;46.00;28.40;;;11.00;99.90;;;;;;4946730;28;20469;-69
2022/03/30 07:30:59;;;;;;;43.27;28.50;;;11.00;99.90;;;;;;4948213;29;20560;-77
2022/03/30 07:33:26;;;;;;;48.37;30.57;;;11.00;99.90;;;;;;4949312;29;20481;-77
2022/03/30 07:35:52;;;;;;;48.77;30.90;;;11.10;99.90;;;;;;4949135;29;20484;-76
2022/03/30 07:38:21;;;;;;;42.80;28.13;;;11.10;99.90;;;;;;4948242;29;20471;-77
2022/03/30 07:40:50;;;;;;;47.93;30.80;;;11.00;99.90;;;;;;4948933;28;20505;-77
2022/03/30 07:43:18;;;;;;;48.77;29.50;;;11.00;99.90;;;;;;4949119;29;20516;-77
2022/03/30 07:45:47;;;;;;;45.17;29.47;;;11.10;99.90;;;;;;4949134;29;20512;-77
2022/03/30 07:48:14;;;;;;;47.07;31.70;;;11.10;99.90;;;;;;4949037;29;20549;-77
2022/03/30 07:50:41;;;;;;;50.90;30.77;;;11.10;99.90;;;;;;4948384;29;20481;-77
2022/03/30 07:53:09;;;;;;;45.50;29.43;;;11.10;99.90;;;;;;4948703;29;20875;-76
2022/03/30 07:55:36;;;;;;;44.80;29.07;;;11.10;99.90;;;;;;4949128;29;20450;-76
2022/03/30 07:58:03;;;;;;;46.03;29.83;;;11.10;99.90;;;;;;4948649;29;20453;-76
2022/03/30 08:00:30;;;;;;;45.50;30.07;;;11.10;99.90;;;;;;4949114;29;20505;-76
2022/03/30 08:03:00;;;;;;;55.50;33.43;;;11.10;99.90;;;;;;4948769;29;20446;-76
2022/03/30 08:05:27;;;;;;;46.90;31.43;;;11.10;99.90;;;;;;4948989;29;20476;-76
2022/03/30 08:07:53;;;;;;;47.77;31.77;;;11.10;99.90;;;;;;4948231;29;20530;-76
2022/03/30 08:10:20;;;;;;;45.77;31.00;;;11.20;99.90;;;;;;4951160;28;20457;-76
2022/03/30 08:12:48;;;;;;;42.10;28.50;;;11.10;99.90;;;;;;4952229;29;21040;-76
2022/03/30 08:15:15;;;;;;;46.57;30.10;;;11.10;99.90;;;;;;4952222;29;20449;-76
2022/03/30 08:17:44;;;;;;;50.90;30.90;;;11.10;99.90;;;;;;4951718;29;20445;-76
2022/03/30 08:22:25;;;;;;;51.30;31.23;;;11.10;99.90;;;;;;4951893;29;20497;-76
2022/03/30 08:22:59;;;;;;;46.63;30.03;;;11.10;99.90;;;;;;4951962;29;20983;-77
2022/03/30 08:25:26;;;;;;;50.23;30.30;;;11.10;99.90;;;;;;4952017;29;20500;-76
2022/03/30 08:27:53;;;;;;;48.40;31.40;;;11.10;99.90;;;;;;4951470;29;20458;-76
2022/03/30 08:30:20;;;;;;;50.67;32.17;;;11.10;99.90;;;;;;4951976;28;20461;-76
2022/03/30 08:32:47;;;;;;;46.23;30.77;;;11.10;99.90;;;;;;4952241;29;20458;-76
2022/03/30 08:35:15;;;;;;;52.20;30.80;;;11.10;99.90;;;;;;4952282;29;20467;-76
2022/03/30 08:37:42;;;;;;;49.60;31.60;;;11.10;99.90;;;;;;4951039;29;20450;-76
2022/03/30 08:40:10;;;;;;;53.17;31.57;;;11.00;99.90;;;;;;4952362;29;20584;-76
2022/03/30 08:42:38;;;;;;;48.97;31.47;;;11.00;99.90;;;;;;4951678;29;21096;-76
2022/03/30 08:45:07;;;;;;;47.00;29.43;;;11.00;99.90;;;;;;4951898;28;21009;-76
2022/03/30 08:47:35;;;;;;;56.77;30.57;;;11.00;99.90;;;;;;4951744;28;20485;-76
2022/03/30 08:50:02;;;;;;;50.00;29.53;;;11.00;99.90;;;;;;4951697;29;20528;-76
2022/03/30 08:52:31;;;;;;;44.67;28.70;;;11.00;99.90;;;;;;4951250;29;21099;-75
2022/03/30 08:54:59;;;;;;;47.33;30.50;;;11.00;99.90;;;;;;4951078;29;20464;-76
2022/03/30 08:57:26;;;;;;;48.03;29.63;;;11.10;99.90;;;;;;4950632;29;20548;-76
2022/03/30 09:00:03;;;;;;;46.10;28.80;;;11.00;99.90;;;;;;4951647;29;20507;-76
2022/03/30 09:02:40;;;;;;;50.67;31.67;;;11.10;99.90;;;;;;4951430;28;20576;-77
2022/03/30 09:05:19;;;;;;;54.50;31.40;;;11.00;99.90;;;;;;4951412;28;20800;-76
2022/03/30 09:07:51;;;;;;;51.13;29.73;;;11.10;99.90;;;;;;4950861;29;20496;-76
2022/03/30 09:10:21;;;;;;;41.57;29.07;;;11.10;99.90;;;;;;4951623;28;20438;-76
2022/03/30 09:12:50;;;;;;;51.90;29.30;;;11.10;99.90;;;;;;4952145;29;20457;-76
2022/03/30 09:15:19;;;;;;;56.23;31.07;;;11.20;99.90;;;;;;4951511;29;20457;-76
2022/03/30 09:17:47;;;;;;;47.07;29.63;;;11.20;99.90;;;;;;4950946;29;20465;-75
2022/03/30 09:20:17;;;;;;;48.93;28.60;;;11.20;99.90;;;;;;4951308;28;20493;-76
2022/03/30 09:22:45;;;;;;;48.50;29.20;;;11.20;99.90;;;;;;4952735;29;20457;-76
2022/03/30 09:25:14;;;;;;;50.60;29.43;;;11.30;99.90;;;;;;4952088;29;20467;-76
2022/03/30 09:27:42;;;;;;;46.37;26.17;;;11.30;99.90;;;;;;4952054;29;20461;-76
2022/03/30 09:30:12;;;;;;;37.23;25.17;;;11.40;99.90;;;;;;4952671;29;20449;-76
2022/03/30 09:32:41;;;;;;;40.27;25.20;;;11.30;99.90;;;;;;4952353;28;20469;-75
2022/03/30 09:35:24;;;;;;;41.87;27.10;;;11.40;99.90;;;;;;4952415;29;20464;-76
2022/03/30 09:38:06;;;;;;;40.33;24.27;;;11.40;99.90;;;;;;4952324;29;20514;-76
2022/03/30 09:40:40;;;;;;;47.17;26.80;;;11.40;99.90;;;;;;4951086;29;20560;-76
2022/03/30 09:43:17;;;;;;;38.50;26.03;;;11.50;99.90;;;;;;4951078;29;20535;-76
2022/03/30 09:45:45;;;;;;;40.30;24.63;;;11.50;99.90;;;;;;4951944;29;20540;-76
2022/03/30 09:48:14;;;;;;;37.77;24.40;;;11.60;99.90;;;;;;4951244;29;20833;-76
2022/03/30 09:50:50;;;;;;;35.80;24.97;;;11.60;99.90;;;;;;4950263;28;20553;-76
2022/03/30 09:53:20;;;;;;;36.80;23.43;;;11.70;99.90;;;;;;4951710;29;20469;-76
2022/03/30 09:56:00;;;;;;;38.50;23.93;;;11.70;99.90;;;;;;4950523;29;20492;-75
2022/03/30 09:58:29;;;;;;;39.77;21.40;;;11.80;99.90;;;;;;4950892;29;20459;-76
2022/03/30 10:01:14;;;;;;;39.63;21.80;;;11.80;99.90;;;;;;4950346;29;20584;-76
2022/03/30 10:03:44;;;;;;;35.27;19.23;;;11.90;99.90;;;;;;4931712;29;20438;-76
2022/03/30 10:06:12;;;;;;;34.70;21.80;;;11.90;99.90;;;;;;4931278;29;20462;-76
2022/03/30 10:08:41;;;;;;;35.60;22.43;;;11.90;99.90;;;;;;4931630;29;20465;-76
2022/03/30 10:11:12;;;;;;;36.00;21.13;;;11.80;99.90;;;;;;4930748;29;20474;-76
2022/03/30 10:13:39;;;;;;;37.67;22.40;;;11.80;99.90;;;;;;4931026;29;20489;-76
2022/03/30 10:16:08;;;;;;;37.43;22.40;;;11.80;99.90;;;;;;4930700;29;20458;-76
2022/03/30 10:18:35;;;;;;;38.53;20.87;;;11.90;99.90;;;;;;4927550;29;20742;-76
2022/03/30 10:21:15;;;;;;;40.00;21.27;;;11.90;99.90;;;;;;4927290;29;20834;-75
2022/03/30 10:23:57;;;;;;;36.63;20.60;;;11.90;99.90;;;;;;4927766;29;20462;-75
2022/03/30 10:26:35;;;;;;;34.93;21.10;;;11.90;99.90;;;;;;4927533;29;20554;-76
2022/03/30 10:29:05;;;;;;;33.90;20.20;;;12.00;99.90;;;;;;4927884;29;20461;-76
2022/03/30 10:31:32;;;;;;;36.47;20.30;;;12.00;99.90;;;;;;4927602;29;20481;-74
2022/03/30 10:34:26;;;;;;;34.77;19.50;;;12.10;99.90;;;;;;4928880;29;20533;-76
2022/03/30 10:37:01;;;;;;;34.33;19.40;;;12.10;99.90;;;;;;4928239;29;20462;-75
2022/03/30 10:39:28;;;;;;;40.40;21.73;;;12.10;99.90;;;;;;4929494;29;20462;-76
2022/03/30 10:42:04;;;;;;;31.80;20.20;;;12.20;99.90;;;;;;4949126;28;20497;-75
2022/03/30 10:44:41;;;;;;;42.07;21.30;;;12.20;99.90;;;;;;4949401;29;20544;-76
2022/03/30 10:47:10;;;;;;;34.43;18.53;;;12.20;99.90;;;;;;4948490;29;20843;-76
2022/03/30 10:49:45;;;;;;;35.37;19.80;;;12.20;99.90;;;;;;4949635;29;20466;-75
2022/03/30 10:52:41;;;;;;;38.40;22.03;;;12.20;99.90;;;;;;4949650;28;20834;-77
2022/03/30 10:55:33;;;;;;;32.43;20.80;;;12.10;99.90;;;;;;4950278;28;20513;-75
2022/03/30 10:58:03;;;;;;;39.37;20.40;;;12.00;99.90;;;;;;4949535;29;20452;-77
2022/03/30 11:00:34;;;;;;;36.23;21.20;;;12.00;99.90;;;;;;4949277;28;20661;-77
2022/03/30 11:03:13;;;;;;;38.90;21.60;;;11.90;99.90;;;;;;4949675;29;20556;-76
2022/03/30 11:05:43;;;;;;;43.80;21.27;;;12.00;99.90;;;;;;4949269;29;20493;-76
2022/03/30 11:08:58;;;;;;;36.93;19.93;;;11.90;99.90;;;;;;4948387;29;20497;-75
2022/03/30 11:11:26;;;;;;;35.20;19.30;;;11.90;99.90;;;;;;4948622;28;20485;-77
2022/03/30 11:14:23;;;;;;;39.03;20.10;;;11.80;99.90;;;;;;4949092;29;20552;-77
2022/03/30 11:16:51;;;;;;;34.90;19.50;;;11.80;99.90;;;;;;4947607;28;20460;-75
2022/03/30 11:19:18;;;;;;;41.17;18.93;;;11.80;99.90;;;;;;4947666;29;20517;-75
2022/03/30 11:21:54;;;;;;;35.50;18.27;;;11.70;99.90;;;;;;4947785;28;20493;-74
2022/03/30 11:24:24;;;;;;;25.60;16.93;;;11.60;99.90;;;;;;4948283;29;20449;-77
2022/03/30 11:27:21;;;;;;;34.33;18.40;;;11.50;99.90;;;;;;4948031;29;20928;-77
2022/03/30 11:30:15;;;;;;;37.17;19.70;;;11.40;99.90;;;;;;4948752;29;20461;-75
2022/03/30 11:33:00;;;;;;;35.47;18.40;;;11.30;99.90;;;;;;4949357;29;20438;-75
2022/03/30 11:35:43;;;;;;;35.03;18.73;;;11.40;99.90;;;;;;4948818;29;20454;-75
2022/03/30 11:38:25;;;;;;;44.00;18.80;;;11.40;99.90;;;;;;4946569;28;20560;-74
2022/03/30 11:40:59;;;;;;;31.67;17.10;;;11.40;99.90;;;;;;4948837;28;20537;-76
2022/03/30 11:43:27;;;;;;;36.03;19.40;;;11.40;99.90;;;;;;4950329;28;20910;-77
2022/03/30 11:45:56;;;;;;;36.37;18.70;;;11.40;99.90;;;;;;4952935;29;20485;-76
2022/03/30 11:48:25;;;;;;;34.13;20.20;;;11.40;99.90;;;;;;4953117;29;20461;-75
2022/03/30 11:50:56;;;;;;;35.73;18.10;;;11.30;99.90;;;;;;4954025;28;20482;-76
2022/03/30 11:53:24;;;;;;;30.33;19.00;;;11.40;99.90;;;;;;4954082;29;20445;-75
2022/03/30 11:55:54;;;;;;;31.60;17.67;;;11.40;99.90;;;;;;4953868;29;20823;-76
2022/03/30 11:58:26;;;;;;;37.47;19.30;;;11.40;99.90;;;;;;4953786;29;20460;-76
2022/03/30 12:00:56;;;;;;;37.10;19.50;;;11.40;99.90;;;;;;4934241;29;20506;-76
2022/03/30 12:03:24;;;;;;;35.73;19.90;;;11.30;99.90;;;;;;4933273;29;20509;-76
2022/03/30 12:05:54;;;;;;;35.03;19.33;;;11.40;99.90;;;;;;4933210;29;20446;-76
2022/03/30 12:08:21;;;;;;;39.00;19.33;;;11.30;99.90;;;;;;4947112;29;20458;-69
2022/03/30 12:10:49;;;;;;;44.43;20.30;;;11.40;99.90;;;;;;4954258;28;20539;-69
2022/03/30 12:13:23;;;;;;;40.43;19.73;;;11.40;99.90;;;;;;4953964;28;20633;-75
2022/03/30 12:16:05;;;;;;;35.30;20.77;;;11.40;99.90;;;;;;4952691;28;20449;-75
2022/03/30 12:18:34;;;;;;;41.57;21.57;;;11.40;99.90;;;;;;4952186;29;20448;-75
2022/03/30 12:21:01;;;;;;;40.40;20.70;;;11.50;99.90;;;;;;4952574;28;21224;-75
2022/03/30 12:23:29;;;;;;;32.67;18.77;;;11.50;99.90;;;;;;4951856;29;20461;-75
2022/03/30 12:25:56;;;;;;;45.77;20.70;;;11.60;99.90;;;;;;4951062;29;20540;-75
2022/03/30 12:28:31;;;;;;;33.30;19.50;;;11.60;99.90;;;;;;4950760;29;20449;-78
2022/03/30 12:30:58;;;;;;;37.60;20.23;;;11.50;99.90;;;;;;4951498;28;20472;-75
2022/03/30 12:33:26;;;;;;;30.03;19.17;;;11.60;99.90;;;;;;4951013;29;20537;-74
2022/03/30 12:35:54;;;;;;;31.33;18.10;;;11.60;99.90;;;;;;4951836;29;20536;-74
2022/03/30 12:38:24;;;;;;;32.70;17.47;;;11.50;99.90;;;;;;4952422;28;20453;-77
2022/03/30 12:40:53;;;;;;;36.00;19.60;;;11.60;99.90;;;;;;4952070;29;20540;-76
2022/03/30 12:43:26;;;;;;;26.23;15.87;;;11.50;99.90;;;;;;4953375;28;20467;-75
2022/03/30 12:45:59;;;;;;;32.13;17.13;;;11.60;99.90;;;;;;4953163;29;20790;-75
2022/03/30 12:48:29;;;;;;;28.33;17.40;;;11.60;99.90;;;;;;4952614;29;20438;-76
2022/03/30 12:50:59;;;;;;;32.73;18.37;;;11.60;99.90;;;;;;4952690;29;20525;-75
2022/03/30 12:53:32;;;;;;;38.33;16.37;;;11.60;99.90;;;;;;4952793;29;20458;-76
2022/03/30 12:56:11;;;;;;;27.40;18.13;;;11.60;99.90;;;;;;4950787;28;20514;-76
2022/03/30 12:58:50;;;;;;;34.10;18.17;;;11.60;99.90;;;;;;4951591;29;20445;-76
2022/03/30 13:01:29;;;;;;;29.43;17.87;;;11.60;99.90;;;;;;4949548;28;20501;-68
2022/03/30 13:03:57;;;;;;;32.63;18.13;;;11.60;99.90;;;;;;4949299;29;20457;-69
2022/03/30 13:06:25;;;;;;;30.33;17.83;;;11.60;99.90;;;;;;4949430;29;20457;-70
2022/03/30 13:09:08;;;;;;;28.30;17.00;;;11.60;99.90;;;;;;4949786;29;20565;-68
2022/03/30 13:11:42;;;;;;;22.33;14.17;;;11.40;99.90;;;;;;4949400;29;20489;-68
2022/03/30 13:14:18;;;;;;;24.30;15.37;;;11.20;99.90;;;;;;4949768;29;20527;-70
2022/03/30 13:16:55;;;;;;;23.87;16.10;;;11.00;99.90;;;;;;4949431;28;20489;-68
2022/03/30 13:19:25;;;;;;;22.20;15.33;;;11.00;99.90;;;;;;4949738;29;20477;-68
2022/03/30 13:21:52;;;;;;;23.00;17.23;;;10.80;99.90;;;;;;4949963;29;20503;-75
2022/03/30 13:24:21;;;;;;;24.30;15.67;;;10.80;99.90;;;;;;4949618;29;20464;-76
2022/03/30 13:26:53;;;;;;;20.37;15.90;;;10.80;99.90;;;;;;4949807;28;20462;-75
2022/03/30 13:29:20;;;;;;;17.43;15.17;;;10.70;99.90;;;;;;4949652;28;20472;-75
2022/03/30 13:31:48;;;;;;;18.67;15.00;;;10.80;99.90;;;;;;4949819;29;20479;-75
2022/03/30 13:34:16;;;;;;;20.17;16.20;;;10.70;99.90;;;;;;4949868;29;21290;-76
2022/03/30 13:36:44;;;;;;;22.33;16.30;;;10.70;99.90;;;;;;4949282;29;20462;-75
2022/03/30 13:39:12;;;;;;;20.53;14.20;;;10.60;99.90;;;;;;4950524;29;20467;-76
2022/03/30 13:41:39;;;;;;;18.37;14.60;;;10.60;99.90;;;;;;4949676;28;20569;-76
2022/03/30 13:44:07;;;;;;;20.23;16.00;;;10.60;99.90;;;;;;4950355;29;20445;-76
2022/03/30 13:46:35;;;;;;;20.37;14.20;;;10.50;99.90;;;;;;4949229;29;20465;-75
2022/03/30 13:49:02;;;;;;;21.57;15.90;;;10.50;99.90;;;;;;4949708;28;20449;-76
2022/03/30 13:51:30;;;;;;;17.43;13.23;;;10.50;99.90;;;;;;4948891;28;20580;-76
2022/03/30 13:53:59;;;;;;;15.40;11.60;;;10.50;99.90;;;;;;4950204;28;20520;-80
2022/03/30 13:56:26;;;;;;;11.30;9.20;;;10.50;99.90;;;;;;4949970;29;20460;-78
2022/03/30 13:58:55;;;;;;;10.80;8.20;;;10.60;99.90;;;;;;4949739;28;21005;-75
2022/03/30 14:01:24;;;;;;;10.00;8.93;;;10.50;99.90;;;;;;4949308;29;20508;-77
2022/03/30 14:03:51;;;;;;;10.90;8.50;;;10.50;99.90;;;;;;4949309;29;20545;-78
2022/03/30 14:06:18;;;;;;;10.87;9.60;;;10.50;99.90;;;;;;4948594;28;20548;-78
2022/03/30 14:08:45;;;;;;;11.03;9.13;;;10.70;99.90;;;;;;4949893;29;21377;-79
2022/03/30 14:11:14;;;;;;;11.47;9.00;;;10.70;99.90;;;;;;4950733;29;20476;-77
2022/03/30 14:13:41;;;;;;;12.30;10.27;;;10.70;99.90;;;;;;4950119;29;21040;-76
2022/03/30 14:16:08;;;;;;;13.47;10.43;;;10.60;99.90;;;;;;4950429;29;20842;-78
2022/03/30 14:18:36;;;;;;;13.13;10.43;;;10.60;99.90;;;;;;4949376;29;20524;-77
2022/03/30 14:21:03;;;;;;;16.27;11.50;;;10.60;99.90;;;;;;4950195;29;20481;-78
2022/03/30 14:23:30;;;;;;;16.40;13.67;;;10.70;99.90;;;;;;4950283;29;20837;-78
2022/03/30 14:25:58;;;;;;;20.53;15.40;;;10.60;99.90;;;;;;4950104;29;20497;-78
2022/03/30 14:28:26;;;;;;;21.43;15.57;;;10.70;99.90;;;;;;4949444;29;20453;-76
2022/03/30 14:30:53;;;;;;;21.20;15.13;;;10.60;99.90;;;;;;4950375;28;20564;-77
2022/03/30 14:33:21;;;;;;;21.77;14.73;;;10.60;99.90;;;;;;4949089;29;20460;-76
2022/03/30 14:35:48;;;;;;;19.97;15.63;;;10.70;99.90;;;;;;4950050;29;20461;-75
2022/03/30 14:38:15;;;;;;;16.23;12.90;;;10.80;99.90;;;;;;4947302;29;20468;-76
2022/03/30 14:40:42;;;;;;;10.17;8.43;;;10.80;99.90;;;;;;4949643;28;20477;-78
2022/03/30 14:43:09;;;;;;;6.73;5.90;;;10.80;99.90;;;;;;4949659;29;20501;-76
2022/03/30 14:45:38;;;;;;;5.63;4.20;;;10.80;99.90;;;;;;4949843;29;20553;-77
2022/03/30 14:48:05;;;;;;;4.30;3.90;;;10.80;99.90;;;;;;4948905;29;20980;-77
2022/03/30 14:50:32;;;;;;;5.73;4.80;;;10.80;99.90;;;;;;4949335;29;20890;-75
2022/03/30 14:52:59;;;;;;;4.47;4.07;;;10.80;99.90;;;;;;4950109;28;20537;-78
2022/03/30 14:55:26;;;;;;;5.40;4.67;;;10.80;99.90;;;;;;4949993;29;20461;-75
2022/03/30 14:57:53;;;;;;;5.63;5.03;;;10.90;99.90;;;;;;4948640;29;20457;-76
2022/03/30 15:00:21;;;;;;;12.23;9.80;;;10.90;99.90;;;;;;4949094;28;20461;-77
2022/03/30 15:02:53;;;;;;;7.70;6.30;;;10.90;99.90;;;;;;4949338;29;20509;-78
2022/03/30 15:05:20;;;;;;;9.50;7.17;;;10.80;99.90;;;;;;4949458;29;20442;-77
2022/03/30 15:07:47;;;;;;;9.10;7.00;;;10.80;99.90;;;;;;4949106;29;20489;-79
2022/03/30 15:10:14;;;;;;;10.37;7.97;;;10.90;99.90;;;;;;4949703;28;20461;-76
2022/03/30 15:12:42;;;;;;;10.37;8.43;;;11.00;99.90;;;;;;4949018;29;20950;-77
2022/03/30 15:15:10;;;;;;;10.60;7.80;;;10.90;99.90;;;;;;4949310;29;20551;-77
2022/03/30 15:17:38;;;;;;;12.10;9.30;;;11.00;99.90;;;;;;4948775;28;20492;-79
2022/03/30 15:20:11;;;;;;;13.80;9.43;;;11.00;99.90;;;;;;4953269;29;20457;-76
2022/03/30 15:22:39;;;;;;;12.30;9.40;;;11.00;99.90;;;;;;4952660;28;20504;-78
2022/03/30 15:25:08;;;;;;;10.50;8.43;;;11.10;99.90;;;;;;4953055;28;20493;-78
2022/03/30 15:27:35;;;;;;;10.27;8.60;;;11.10;99.90;;;;;;4952860;29;20467;-76
2022/03/30 15:30:02;;;;;;;10.40;9.17;;;11.10;99.90;;;;;;4953502;28;20996;-77
2022/03/30 15:32:29;;;;;;;12.00;9.87;;;11.10;99.90;;;;;;4953496;28;20512;-76
2022/03/30 15:34:56;;;;;;;10.70;9.07;;;11.10;99.90;;;;;;4953106;29;20512;-79
2022/03/30 15:37:24;;;;;;;9.23;8.20;;;11.10;99.90;;;;;;4952637;29;20544;-77
2022/03/30 15:39:52;;;;;;;13.43;9.30;;;11.10;99.90;;;;;;4952965;29;20460;-76
2022/03/30 15:42:21;;;;;;;12.00;8.73;;;11.20;99.90;;;;;;4952901;28;20612;-76
2022/03/30 15:44:48;;;;;;;14.03;9.87;;;11.20;99.90;;;;;;4953095;28;20492;-76
2022/03/30 15:47:15;;;;;;;12.30;9.53;;;11.20;99.90;;;;;;4952285;29;20928;-79
2022/03/30 15:49:43;;;;;;;11.10;9.40;;;11.20;99.90;;;;;;4952946;29;20459;-76
2022/03/30 15:52:12;;;;;;;15.03;9.90;;;11.20;99.90;;;;;;4953997;28;20509;-76
2022/03/30 15:54:40;;;;;;;13.30;10.03;;;11.20;99.90;;;;;;4952796;28;20544;-77
2022/03/30 15:57:08;;;;;;;13.17;9.50;;;11.20;99.90;;;;;;4951972;29;20460;-78
2022/03/30 15:59:36;;;;;;;12.47;9.37;;;11.20;99.90;;;;;;4952578;29;20488;-78
2022/03/30 16:02:04;;;;;;;12.77;9.53;;;11.20;99.90;;;;;;4951984;28;20588;-77
2022/03/30 16:04:31;;;;;;;10.80;9.00;;;11.20;99.90;;;;;;4952787;29;20585;-78
2022/03/30 16:06:58;;;;;;;16.73;11.00;;;11.20;99.90;;;;;;4953776;28;21107;-78
2022/03/30 16:09:25;;;;;;;14.37;10.90;;;11.20;99.90;;;;;;4953757;28;20450;-78
2022/03/30 16:12:12;;;;;;;15.40;11.40;;;11.20;99.90;;;;;;4954077;28;20468;-78
2022/03/30 16:14:40;;;;;;;17.13;12.20;;;11.20;99.90;;;;;;4953310;29;20437;-79
2022/03/30 16:17:07;;;;;;;14.10;11.20;;;11.20;99.90;;;;;;4952594;28;20495;-77
2022/03/30 16:19:37;;;;;;;14.83;11.50;;;11.20;99.90;;;;;;4952501;29;20459;-77
2022/03/30 16:22:07;;;;;;;17.77;12.50;;;11.20;99.90;;;;;;4953688;28;20508;-78
2022/03/30 16:24:35;;;;;;;21.83;15.30;;;11.20;99.90;;;;;;4970913;28;20473;-78
2022/03/30 16:27:04;;;;;;;16.53;12.73;;;11.20;99.90;;;;;;4970120;28;20564;-77
2022/03/30 16:29:31;;;;;;;16.70;12.57;;;11.20;99.90;;;;;;4970181;28;20456;-77
2022/03/30 16:32:01;;;;;;;18.13;12.93;;;11.10;99.90;;;;;;4970309;28;20585;-78
2022/03/30 16:34:29;;;;;;;16.20;12.63;;;11.10;99.90;;;;;;4970364;28;20960;-80
2022/03/30 16:36:57;;;;;;;19.80;15.70;;;11.10;99.90;;;;;;4960993;28;20841;-78
2022/03/30 16:39:26;;;;;;;22.83;15.97;;;11.10;99.90;;;;;;4951505;28;20476;-77
2022/03/30 16:41:54;;;;;;;36.43;23.07;;;11.00;99.90;;;;;;4951401;29;20474;-80
2022/03/30 16:44:22;;;;;;;21.90;15.77;;;11.00;99.90;;;;;;4951806;29;20541;-77